Pont Aven — FNPN — position and weather

sailwx.info

Track history (hours):
 
Tides and Currents Weather Stations Pressure Air Temp Water Temp Dewpoint Dewpoint Depression Visibility Wind Speed Wind Dir Waves Ship Positions

Pont Aven

Last reported at 2019-Aug-20 10:00 UTC. Time now 2019-Aug-20 10:13 UTC.
Position N 48°32' W 004°58'.

Length 185 m; beam 31 m.

Type: Passenger vessel. MMSI: 228183600.

Date/timePositionNaut miles runAvg speedWind from/ knotsBaromVisibWave heightAir tempDewpointWater temp
2019-Aug-20 10:00N 48°32' W 004°58'815.1
2019-Aug-20 09:30N 48°25' W 005°04'816.8
2019-Aug-20 09:00N 48°18' W 005°09'1020.2
2019-Aug-20 08:31N 48°08' W 005°11'1020.1
2019-Aug-20 08:01N 47°58' W 005°09'1019.9
2019-Aug-20 07:30N 47°48' W 005°05'1120.3
2019-Aug-20 06:58N 47°38' W 005°02'1220.5
2019-Aug-20 06:24N 47°26' W 004°58'1220.2
2019-Aug-20 05:48N 47°14' W 004°54'5120.6
2019-Aug-20 03:20N 46°25' W 004°37'17220.3
2019-Aug-19 18:51N 43°36' W 003°47'9 2.2
2019-Aug-19 14:52N 43°28' W 003°48'0 0.0
2019-Aug-19 14:30N 43°28' W 003°48'4 6.4
2019-Aug-19 13:51N 43°31' W 003°45'721.1
2019-Aug-19 13:30N 43°38' W 003°47'1620.6
2019-Aug-19 12:44N 43°53' W 003°52'23120.8
2019-Aug-19 01:38N 47°39' W 005°02'620.6
2019-Aug-19 01:21N 47°45' W 005°04'720.4
2019-Aug-19 01:00N 47°52' W 005°06'1020.8
2019-Aug-19 00:30N 48°02' W 005°10'1020.9
2019-Aug-19 00:00N 48°13' W 005°09'1121.0
2019-Aug-18 23:30N 48°23' W 005°06'815.6
2019-Aug-18 23:01N 48°29' W 004°59'1122.3
2019-Aug-18 22:30N 48°40' W 004°56'1122.2
2019-Aug-18 22:00N 48°51' W 004°51'7420.5
2019-Aug-18 18:25N 50°02' W 004°19'1020.4
2019-Aug-18 17:55N 50°11' W 004°14'820.0
2019-Aug-18 17:30N 50°19' W 004°10'3 5.6
2019-Aug-18 17:00N 50°22' W 004°09'0 0.0
2019-Aug-18 16:29N 50°22' W 004°09'0 0.0
2019-Aug-18 16:00N 50°22' W 004°09'0 0.0
2019-Aug-18 15:30N 50°22' W 004°09'0 0.0
2019-Aug-18 15:00N 50°22' W 004°09'0 0.0
2019-Aug-18 14:30N 50°22' W 004°09'0 0.5
2019-Aug-18 14:00N 50°22' W 004°09'612.7
2019-Aug-18 13:30N 50°15' W 004°10'1121.1
2019-Aug-18 13:00N 50°05' W 004°07'1020.8
2019-Aug-18 12:30N 49°55' W 004°06'1020.8
2019-Aug-18 12:00N 49°44' W 004°04'61 8.8
2019-Aug-18 05:01N 48°43' W 003°58'0 0.5
2019-Aug-18 04:37N 48°43' W 003°57'111.5
2019-Aug-18 04:30N 48°44' W 003°57'1018.8
2019-Aug-18 03:59N 48°52' W 004°06'1020.2
2019-Aug-18 03:30N 48°59' W 004°17'20719.5
2019-Aug-17 16:51N 51°32' W 007°55'616.6
2019-Aug-17 16:30N 51°37' W 008°01'1121.3
2019-Aug-17 16:00N 51°44' W 008°13'612.5
2019-Aug-17 15:30N 51°50' W 008°16'2 4.1
2019-Aug-17 14:58N 51°50' W 008°19'0 0.0
2019-Aug-17 14:28N 51°50' W 008°19'0 0.0
2019-Aug-17 13:58N 51°50' W 008°19'0 0.0
2019-Aug-17 13:28N 51°50' W 008°19'0 0.0
2019-Aug-17 12:58N 51°50' W 008°19'0 0.0
2019-Aug-17 12:28N 51°50' W 008°19'0 0.0
2019-Aug-17 11:58N 51°50' W 008°19'0 0.0
2019-Aug-17 11:28N 51°50' W 008°19'0 0.0
2019-Aug-17 10:58N 51°50' W 008°19'0 0.0
2019-Aug-17 10:28N 51°50' W 008°19'0 0.0
2019-Aug-17 09:58N 51°50' W 008°19'0 0.0
2019-Aug-17 09:28N 51°50' W 008°19'0 0.0
2019-Aug-17 09:00N 51°50' W 008°19'0 0.2
2019-Aug-17 08:30N 51°50' W 008°20'2 4.5
2019-Aug-17 08:00N 51°50' W 008°16'714.8
2019-Aug-17 07:31N 51°43' W 008°12'1020.4
2019-Aug-17 07:01N 51°36' W 008°00'1020.2
2019-Aug-17 06:31N 51°29' W 007°49'1019.9
2019-Aug-17 06:00N 51°22' W 007°37'11719.4
2019-Aug-16 23:59N 49°53' W 005°39'1020.8
2019-Aug-16 23:30N 49°45' W 005°28'1020.6
2019-Aug-16 23:00N 49°38' W 005°18'75 9.7
2019-Aug-16 15:18N 48°45' W 003°56'513.6
2019-Aug-16 14:55N 48°50' W 003°54'3 2.6
2019-Aug-16 13:51N 48°51' W 003°58'1 2.1
2019-Aug-16 13:28N 48°50' W 003°58'2 2.0
2019-Aug-16 12:23N 48°48' W 003°58'2 2.2
2019-Aug-16 11:28N 48°46' W 003°57'1 2.0
2019-Aug-16 10:59N 48°45' W 003°57'2 4.7
2019-Aug-16 10:30N 48°43' W 003°58'0 0.0
2019-Aug-16 10:00N 48°43' W 003°58'0 0.0
2019-Aug-16 09:29N 48°43' W 003°58'0 0.0
2019-Aug-16 08:54N 48°43' W 003°58'0 0.0
2019-Aug-16 08:28N 48°43' W 003°58'0 0.0
2019-Aug-16 07:57N 48°43' W 003°58'0 0.0
2019-Aug-16 07:08N 48°43' W 003°58'0 0.0
2019-Aug-16 06:57N 48°43' W 003°58'0 0.3
2019-Aug-16 06:28N 48°43' W 003°58'511.0
2019-Aug-16 06:00N 48°48' W 003°57'1016.8
2019-Aug-16 05:24N 48°58' W 003°59'715.7
2019-Aug-16 04:58N 49°05' W 004°00'816.5
2019-Aug-16 04:30N 49°12' W 004°03'1616.5
2019-Aug-16 03:32N 49°28' W 004°06'116.7
2019-Aug-16 03:30N 49°29' W 004°06'1416.7
2019-Aug-16 02:41N 49°43' W 004°07'516.0
2019-Aug-16 02:22N 49°47' W 004°06'715.8
2019-Aug-16 01:57N 49°54' W 004°07'715.8
2019-Aug-16 01:30N 50°01' W 004°08'815.9
2019-Aug-16 01:00N 50°09' W 004°09'815.6
2019-Aug-16 00:30N 50°17' W 004°10'5 9.5
2019-Aug-15 23:59N 50°22' W 004°09'0 0.2
2019-Aug-15 23:27N 50°22' W 004°09'0 0.0
2019-Aug-15 22:59N 50°22' W 004°09'0 0.0
2019-Aug-15 22:30N 50°22' W 004°09'0 0.0
2019-Aug-15 21:56N 50°22' W 004°09'0 0.0
2019-Aug-15 21:30N 50°22' W 004°09'0 0.0
2019-Aug-15 20:57N 50°22' W 004°09'1 1.3
2019-Aug-15 20:30N 50°21' W 004°09'612.9
2019-Aug-15 20:01N 50°15' W 004°12'1121.3
2019-Aug-15 19:31N 50°05' W 004°16'1121.4
2019-Aug-15 19:01N 49°55' W 004°21'1121.4
2019-Aug-15 18:30N 49°44' W 004°24'5522.0
2019-Aug-15 16:01N 48°52' W 004°49'022.6
2019-Aug-15 16:00N 48°52' W 004°49'1122.7
2019-Aug-15 15:30N 48°41' W 004°54'1122.1
2019-Aug-15 15:01N 48°30' W 004°59'816.7
2019-Aug-15 14:31N 48°23' W 005°05'1122.0
2019-Aug-15 14:01N 48°12' W 005°09'1122.6
2019-Aug-15 13:31N 48°01' W 005°10'1122.2
2019-Aug-15 13:00N 47°50' W 005°06'1121.6
2019-Aug-15 12:30N 47°40' W 005°03'1121.4
2019-Aug-15 12:00N 47°29' W 004°60'1921.2
2019-Aug-15 11:07N 47°11' W 004°54'421.1
2019-Aug-15 10:55N 47°07' W 004°53'921.0
2019-Aug-15 10:28N 46°58' W 004°49'1220.9
2019-Aug-15 09:54N 46°46' W 004°45'921.2
2019-Aug-15 09:29N 46°38' W 004°42'2120.4
2019-Aug-15 08:29N 46°17' W 004°36'1019.9
2019-Aug-15 07:58N 46°08' W 004°33'15520.3
2019-Aug-15 00:21N 43°36' W 003°47'4 1.0
2019-Aug-14 20:33N 43°32' W 003°46'121.9
2019-Aug-14 20:30N 43°33' W 003°47'25820.7
2019-Aug-14 08:02N 47°46' W 005°04'120.3
2019-Aug-14 08:00N 47°47' W 005°04'1020.8
2019-Aug-14 07:31N 47°57' W 005°08'1121.3
2019-Aug-14 07:00N 48°07' W 005°12'1020.6
2019-Aug-14 06:30N 48°17' W 005°07'1019.4
2019-Aug-14 06:00N 48°26' W 005°03'917.8
2019-Aug-14 05:31N 48°34' W 004°57'1019.9
2019-Aug-14 05:01N 48°44' W 004°54'1019.2
2019-Aug-14 04:30N 48°53' W 004°49'1218.9
2019-Aug-14 03:53N 49°04' W 004°44'514.6
2019-Aug-14 03:30N 49°09' W 004°41'5416.3
2019-Aug-14 00:11N 50°01' W 004°17'520.7
2019-Aug-13 23:57N 50°06' W 004°15'1020.6
2019-Aug-13 23:30N 50°15' W 004°12'713.9
2019-Aug-13 23:00N 50°22' W 004°09'0 0.8
2019-Aug-13 22:28N 50°22' W 004°09'0 0.0
2019-Aug-13 22:00N 50°22' W 004°09'0 0.0
2019-Aug-13 21:30N 50°22' W 004°09'0 0.0
2019-Aug-13 20:59N 50°22' W 004°09'0 0.0
2019-Aug-13 20:28N 50°22' W 004°09'0 0.0
2019-Aug-13 19:59N 50°22' W 004°09'2 4.1
2019-Aug-13 19:30N 50°20' W 004°10'917.4
2019-Aug-13 19:01N 50°12' W 004°14'1121.2
2019-Aug-13 18:31N 50°01' W 004°18'7021.6
2019-Aug-13 15:17N 48°54' W 004°43'622.3
2019-Aug-13 15:00N 48°48' W 004°45'1122.5
2019-Aug-13 14:31N 48°37' W 004°49'917.5
2019-Aug-13 14:00N 48°28' W 004°51'714.9
2019-Aug-13 13:31N 48°21' W 004°49'918.2
2019-Aug-13 13:01N 48°12' W 004°46'1019.1
2019-Aug-13 12:30N 48°02' W 004°46'917.9
2019-Aug-13 12:01N 47°54' W 004°43'1121.3
2019-Aug-13 11:30N 47°43' W 004°41'1020.6
2019-Aug-13 11:00N 47°33' W 004°38'23820.7
2019-Aug-12 23:28N 43°37' W 003°46'1016.1
2019-Aug-12 22:51N 43°28' W 003°47'1 2.4
2019-Aug-12 22:29N 43°28' W 003°48'0 0.0
2019-Aug-12 21:54N 43°28' W 003°48'0 0.0
2019-Aug-12 21:30N 43°28' W 003°48'0 0.0
2019-Aug-12 20:57N 43°28' W 003°48'0 0.0
2019-Aug-12 20:30N 43°28' W 003°48'0 0.0
2019-Aug-12 19:59N 43°28' W 003°48'0 0.0
2019-Aug-12 19:28N 43°28' W 003°48'4 8.3
2019-Aug-12 18:56N 43°31' W 003°45'1021.6
2019-Aug-12 18:29N 43°40' W 003°48'25221.4
2019-Aug-12 06:45N 47°46' W 005°07'521.8
2019-Aug-12 06:31N 47°51' W 005°09'1121.9
2019-Aug-12 06:01N 48°02' W 005°09'1122.3
2019-Aug-12 05:30N 48°13' W 005°07'1121.9
2019-Aug-12 05:00N 48°24' W 005°05'816.6
2019-Aug-12 04:30N 48°31' W 004°58'1121.5
2019-Aug-12 04:01N 48°41' W 004°54'1121.2
2019-Aug-12 03:30N 48°52' W 004°51'7120.7
2019-Aug-12 00:04N 49°60' W 004°19'321.2
2019-Aug-11 23:57N 50°02' W 004°18'921.2
2019-Aug-11 23:30N 50°11' W 004°14'918.9
2019-Aug-11 23:00N 50°20' W 004°10'2 3.1
2019-Aug-11 22:30N 50°22' W 004°09'0 0.0
2019-Aug-11 22:00N 50°22' W 004°09'0 0.0
2019-Aug-11 21:30N 50°22' W 004°09'0 0.0
2019-Aug-11 21:01N 50°22' W 004°09'0 0.0
2019-Aug-11 20:30N 50°22' W 004°09'0 0.0
2019-Aug-11 20:00N 50°22' W 004°09'0 0.1
2019-Aug-11 19:30N 50°22' W 004°09'4 8.1
2019-Aug-11 19:00N 50°18' W 004°10'1020.9
2019-Aug-11 18:30N 50°07' W 004°09'1121.1
2019-Aug-11 18:00N 49°57' W 004°07'1121.1
2019-Aug-11 17:31N 49°46' W 004°06'1121.1
2019-Aug-11 17:00N 49°36' W 004°03'1121.2
2019-Aug-11 16:29N 49°25' W 004°01'1021.1
2019-Aug-11 16:01N 49°15' W 004°01'1121.2
2019-Aug-11 15:30N 49°04' W 003°59'2112.2
2019-Aug-11 13:48N 48°43' W 003°58'0 0.0
2019-Aug-11 13:31N 48°43' W 003°58'0 0.0
2019-Aug-11 13:01N 48°43' W 003°58'0 0.0
2019-Aug-11 12:31N 48°43' W 003°58'0 0.0
2019-Aug-11 12:00N 48°43' W 003°58'0 0.0
2019-Aug-11 11:31N 48°43' W 003°58'0 0.0
2019-Aug-11 10:54N 48°43' W 003°58'2 5.0
2019-Aug-11 10:30N 48°45' W 003°57'1020.0
2019-Aug-11 10:00N 48°52' W 004°07'21520.5
2019-Aug-10 23:33N 51°31' W 007°53'121.2
2019-Aug-10 23:29N 51°32' W 007°55'1021.0
2019-Aug-10 23:00N 51°39' W 008°06'1019.3
2019-Aug-10 22:30N 51°47' W 008°15'4 8.4
2019-Aug-10 22:00N 51°51' W 008°17'2 3.5
2019-Aug-10 21:31N 51°50' W 008°19'0 0.0
2019-Aug-10 21:01N 51°50' W 008°19'0 0.0
2019-Aug-10 20:30N 51°50' W 008°19'0 0.0
2019-Aug-10 20:00N 51°50' W 008°19'0 0.0
2019-Aug-10 19:30N 51°50' W 008°19'0 0.0
2019-Aug-10 19:00N 51°50' W 008°19'0 0.0
2019-Aug-10 18:30N 51°50' W 008°19'0 0.0
2019-Aug-10 18:00N 51°50' W 008°19'0 0.0
2019-Aug-10 17:30N 51°50' W 008°19'1 1.6
2019-Aug-10 17:00N 51°51' W 008°19'3 6.9
2019-Aug-10 16:30N 51°48' W 008°16'816.6
2019-Aug-10 16:01N 51°41' W 008°07'1019.0
2019-Aug-10 15:30N 51°36' W 007°54'918.6
2019-Aug-10 15:00N 51°31' W 007°41'  
Track history (hours):
 
Tides and Currents Weather Stations Pressure Air Temp Water Temp Dewpoint Dewpoint Depression Visibility Wind Speed Wind Dir Waves Ship Positions

Pont Aven

Last reported at 2019-Aug-20 10:00 UTC. Time now 2019-Aug-20 10:13 UTC.
Position N 48°32' W 004°58'.

Length 185 m; beam 31 m.

Type: Passenger vessel. MMSI: 228183600.

Date/timePositionNaut miles runAvg speedWind from/ knotsBaromVisibWave heightAir tempDewpointWater temp
2019-Aug-20 10:00N 48°32' W 004°58'815.1
2019-Aug-20 09:30N 48°25' W 005°04'816.8
2019-Aug-20 09:00N 48°18' W 005°09'1020.2
2019-Aug-20 08:31N 48°08' W 005°11'1020.1
2019-Aug-20 08:01N 47°58' W 005°09'1019.9
2019-Aug-20 07:30N 47°48' W 005°05'1120.3
2019-Aug-20 06:58N 47°38' W 005°02'1220.5
2019-Aug-20 06:24N 47°26' W 004°58'1220.2
2019-Aug-20 05:48N 47°14' W 004°54'5120.6
2019-Aug-20 03:20N 46°25' W 004°37'17220.3
2019-Aug-19 18:51N 43°36' W 003°47'9 2.2
2019-Aug-19 14:52N 43°28' W 003°48'0 0.0
2019-Aug-19 14:30N 43°28' W 003°48'4 6.4
2019-Aug-19 13:51N 43°31' W 003°45'721.1
2019-Aug-19 13:30N 43°38' W 003°47'1620.6
2019-Aug-19 12:44N 43°53' W 003°52'23120.8
2019-Aug-19 01:38N 47°39' W 005°02'620.6
2019-Aug-19 01:21N 47°45' W 005°04'720.4
2019-Aug-19 01:00N 47°52' W 005°06'1020.8
2019-Aug-19 00:30N 48°02' W 005°10'1020.9
2019-Aug-19 00:00N 48°13' W 005°09'1121.0
2019-Aug-18 23:30N 48°23' W 005°06'815.6
2019-Aug-18 23:01N 48°29' W 004°59'1122.3
2019-Aug-18 22:30N 48°40' W 004°56'1122.2
2019-Aug-18 22:00N 48°51' W 004°51'7420.5
2019-Aug-18 18:25N 50°02' W 004°19'1020.4
2019-Aug-18 17:55N 50°11' W 004°14'820.0
2019-Aug-18 17:30N 50°19' W 004°10'3 5.6
2019-Aug-18 17:00N 50°22' W 004°09'0 0.0
2019-Aug-18 16:29N 50°22' W 004°09'0 0.0
2019-Aug-18 16:00N 50°22' W 004°09'0 0.0
2019-Aug-18 15:30N 50°22' W 004°09'0 0.0
2019-Aug-18 15:00N 50°22' W 004°09'0 0.0
2019-Aug-18 14:30N 50°22' W 004°09'0 0.5
2019-Aug-18 14:00N 50°22' W 004°09'612.7
2019-Aug-18 13:30N 50°15' W 004°10'1121.1
2019-Aug-18 13:00N 50°05' W 004°07'1020.8
2019-Aug-18 12:30N 49°55' W 004°06'1020.8
2019-Aug-18 12:00N 49°44' W 004°04'61 8.8
2019-Aug-18 05:01N 48°43' W 003°58'0 0.5
2019-Aug-18 04:37N 48°43' W 003°57'111.5
2019-Aug-18 04:30N 48°44' W 003°57'1018.8
2019-Aug-18 03:59N 48°52' W 004°06'1020.2
2019-Aug-18 03:30N 48°59' W 004°17'20719.5
2019-Aug-17 16:51N 51°32' W 007°55'616.6
2019-Aug-17 16:30N 51°37' W 008°01'1121.3
2019-Aug-17 16:00N 51°44' W 008°13'612.5
2019-Aug-17 15:30N 51°50' W 008°16'2 4.1
2019-Aug-17 14:58N 51°50' W 008°19'0 0.0
2019-Aug-17 14:28N 51°50' W 008°19'0 0.0
2019-Aug-17 13:58N 51°50' W 008°19'0 0.0
2019-Aug-17 13:28N 51°50' W 008°19'0 0.0
2019-Aug-17 12:58N 51°50' W 008°19'0 0.0
2019-Aug-17 12:28N 51°50' W 008°19'0 0.0
2019-Aug-17 11:58N 51°50' W 008°19'0 0.0
2019-Aug-17 11:28N 51°50' W 008°19'0 0.0
2019-Aug-17 10:58N 51°50' W 008°19'0 0.0
2019-Aug-17 10:28N 51°50' W 008°19'0 0.0
2019-Aug-17 09:58N 51°50' W 008°19'0 0.0
2019-Aug-17 09:28N 51°50' W 008°19'0 0.0
2019-Aug-17 09:00N 51°50' W 008°19'0 0.2
2019-Aug-17 08:30N 51°50' W 008°20'2 4.5
2019-Aug-17 08:00N 51°50' W 008°16'714.8
2019-Aug-17 07:31N 51°43' W 008°12'1020.4
2019-Aug-17 07:01N 51°36' W 008°00'1020.2
2019-Aug-17 06:31N 51°29' W 007°49'1019.9
2019-Aug-17 06:00N 51°22' W 007°37'11719.4
2019-Aug-16 23:59N 49°53' W 005°39'1020.8
2019-Aug-16 23:30N 49°45' W 005°28'1020.6
2019-Aug-16 23:00N 49°38' W 005°18'75 9.7
2019-Aug-16 15:18N 48°45' W 003°56'513.6
2019-Aug-16 14:55N 48°50' W 003°54'3 2.6
2019-Aug-16 13:51N 48°51' W 003°58'1 2.1
2019-Aug-16 13:28N 48°50' W 003°58'2 2.0
2019-Aug-16 12:23N 48°48' W 003°58'2 2.2
2019-Aug-16 11:28N 48°46' W 003°57'1 2.0
2019-Aug-16 10:59N 48°45' W 003°57'2 4.7
2019-Aug-16 10:30N 48°43' W 003°58'0 0.0
2019-Aug-16 10:00N 48°43' W 003°58'0 0.0
2019-Aug-16 09:29N 48°43' W 003°58'0 0.0
2019-Aug-16 08:54N 48°43' W 003°58'0 0.0
2019-Aug-16 08:28N 48°43' W 003°58'0 0.0
2019-Aug-16 07:57N 48°43' W 003°58'0 0.0
2019-Aug-16 07:08N 48°43' W 003°58'0 0.0
2019-Aug-16 06:57N 48°43' W 003°58'0 0.3
2019-Aug-16 06:28N 48°43' W 003°58'511.0
2019-Aug-16 06:00N 48°48' W 003°57'1016.8
2019-Aug-16 05:24N 48°58' W 003°59'715.7
2019-Aug-16 04:58N 49°05' W 004°00'816.5
2019-Aug-16 04:30N 49°12' W 004°03'1616.5
2019-Aug-16 03:32N 49°28' W 004°06'116.7
2019-Aug-16 03:30N 49°29' W 004°06'1416.7
2019-Aug-16 02:41N 49°43' W 004°07'516.0
2019-Aug-16 02:22N 49°47' W 004°06'715.8
2019-Aug-16 01:57N 49°54' W 004°07'715.8
2019-Aug-16 01:30N 50°01' W 004°08'815.9
2019-Aug-16 01:00N 50°09' W 004°09'815.6
2019-Aug-16 00:30N 50°17' W 004°10'5 9.5
2019-Aug-15 23:59N 50°22' W 004°09'0 0.2
2019-Aug-15 23:27N 50°22' W 004°09'0 0.0
2019-Aug-15 22:59N 50°22' W 004°09'0 0.0
2019-Aug-15 22:30N 50°22' W 004°09'0 0.0
2019-Aug-15 21:56N 50°22' W 004°09'0 0.0
2019-Aug-15 21:30N 50°22' W 004°09'0 0.0
2019-Aug-15 20:57N 50°22' W 004°09'1 1.3
2019-Aug-15 20:30N 50°21' W 004°09'612.9
2019-Aug-15 20:01N 50°15' W 004°12'1121.3
2019-Aug-15 19:31N 50°05' W 004°16'1121.4
2019-Aug-15 19:01N 49°55' W 004°21'1121.4
2019-Aug-15 18:30N 49°44' W 004°24'5522.0
2019-Aug-15 16:01N 48°52' W 004°49'022.6
2019-Aug-15 16:00N 48°52' W 004°49'1122.7
2019-Aug-15 15:30N 48°41' W 004°54'1122.1
2019-Aug-15 15:01N 48°30' W 004°59'816.7
2019-Aug-15 14:31N 48°23' W 005°05'1122.0
2019-Aug-15 14:01N 48°12' W 005°09'1122.6
2019-Aug-15 13:31N 48°01' W 005°10'1122.2
2019-Aug-15 13:00N 47°50' W 005°06'1121.6
2019-Aug-15 12:30N 47°40' W 005°03'1121.4
2019-Aug-15 12:00N 47°29' W 004°60'1921.2
2019-Aug-15 11:07N 47°11' W 004°54'421.1
2019-Aug-15 10:55N 47°07' W 004°53'921.0
2019-Aug-15 10:28N 46°58' W 004°49'1220.9
2019-Aug-15 09:54N 46°46' W 004°45'921.2
2019-Aug-15 09:29N 46°38' W 004°42'2120.4
2019-Aug-15 08:29N 46°17' W 004°36'1019.9
2019-Aug-15 07:58N 46°08' W 004°33'15520.3
2019-Aug-15 00:21N 43°36' W 003°47'4 1.0
2019-Aug-14 20:33N 43°32' W 003°46'121.9
2019-Aug-14 20:30N 43°33' W 003°47'25820.7
2019-Aug-14 08:02N 47°46' W 005°04'120.3
2019-Aug-14 08:00N 47°47' W 005°04'1020.8
2019-Aug-14 07:31N 47°57' W 005°08'1121.3
2019-Aug-14 07:00N 48°07' W 005°12'1020.6
2019-Aug-14 06:30N 48°17' W 005°07'1019.4
2019-Aug-14 06:00N 48°26' W 005°03'917.8
2019-Aug-14 05:31N 48°34' W 004°57'1019.9
2019-Aug-14 05:01N 48°44' W 004°54'1019.2
2019-Aug-14 04:30N 48°53' W 004°49'1218.9
2019-Aug-14 03:53N 49°04' W 004°44'514.6
2019-Aug-14 03:30N 49°09' W 004°41'5416.3
2019-Aug-14 00:11N 50°01' W 004°17'520.7
2019-Aug-13 23:57N 50°06' W 004°15'1020.6
2019-Aug-13 23:30N 50°15' W 004°12'713.9
2019-Aug-13 23:00N 50°22' W 004°09'0 0.8
2019-Aug-13 22:28N 50°22' W 004°09'0 0.0
2019-Aug-13 22:00N 50°22' W 004°09'0 0.0
2019-Aug-13 21:30N 50°22' W 004°09'0 0.0
2019-Aug-13 20:59N 50°22' W 004°09'0 0.0
2019-Aug-13 20:28N 50°22' W 004°09'0 0.0
2019-Aug-13 19:59N 50°22' W 004°09'2 4.1
2019-Aug-13 19:30N 50°20' W 004°10'917.4
2019-Aug-13 19:01N 50°12' W 004°14'1121.2
2019-Aug-13 18:31N 50°01' W 004°18'7021.6
2019-Aug-13 15:17N 48°54' W 004°43'622.3
2019-Aug-13 15:00N 48°48' W 004°45'1122.5
2019-Aug-13 14:31N 48°37' W 004°49'917.5
2019-Aug-13 14:00N 48°28' W 004°51'714.9
2019-Aug-13 13:31N 48°21' W 004°49'918.2
2019-Aug-13 13:01N 48°12' W 004°46'1019.1
2019-Aug-13 12:30N 48°02' W 004°46'917.9
2019-Aug-13 12:01N 47°54' W 004°43'1121.3
2019-Aug-13 11:30N 47°43' W 004°41'1020.6
2019-Aug-13 11:00N 47°33' W 004°38'23820.7
2019-Aug-12 23:28N 43°37' W 003°46'1016.1
2019-Aug-12 22:51N 43°28' W 003°47'1 2.4
2019-Aug-12 22:29N 43°28' W 003°48'0 0.0
2019-Aug-12 21:54N 43°28' W 003°48'0 0.0
2019-Aug-12 21:30N 43°28' W 003°48'0 0.0
2019-Aug-12 20:57N 43°28' W 003°48'0 0.0
2019-Aug-12 20:30N 43°28' W 003°48'0 0.0
2019-Aug-12 19:59N 43°28' W 003°48'0 0.0
2019-Aug-12 19:28N 43°28' W 003°48'4 8.3
2019-Aug-12 18:56N 43°31' W 003°45'1021.6
2019-Aug-12 18:29N 43°40' W 003°48'25221.4
2019-Aug-12 06:45N 47°46' W 005°07'521.8
2019-Aug-12 06:31N 47°51' W 005°09'1121.9
2019-Aug-12 06:01N 48°02' W 005°09'1122.3
2019-Aug-12 05:30N 48°13' W 005°07'1121.9
2019-Aug-12 05:00N 48°24' W 005°05'816.6
2019-Aug-12 04:30N 48°31' W 004°58'1121.5
2019-Aug-12 04:01N 48°41' W 004°54'1121.2
2019-Aug-12 03:30N 48°52' W 004°51'7120.7
2019-Aug-12 00:04N 49°60' W 004°19'321.2
2019-Aug-11 23:57N 50°02' W 004°18'921.2
2019-Aug-11 23:30N 50°11' W 004°14'918.9
2019-Aug-11 23:00N 50°20' W 004°10'2 3.1
2019-Aug-11 22:30N 50°22' W 004°09'0 0.0
2019-Aug-11 22:00N 50°22' W 004°09'0 0.0
2019-Aug-11 21:30N 50°22' W 004°09'0 0.0
2019-Aug-11 21:01N 50°22' W 004°09'0 0.0
2019-Aug-11 20:30N 50°22' W 004°09'0 0.0
2019-Aug-11 20:00N 50°22' W 004°09'0 0.1
2019-Aug-11 19:30N 50°22' W 004°09'4 8.1
2019-Aug-11 19:00N 50°18' W 004°10'1020.9
2019-Aug-11 18:30N 50°07' W 004°09'1121.1
2019-Aug-11 18:00N 49°57' W 004°07'1121.1
2019-Aug-11 17:31N 49°46' W 004°06'1121.1
2019-Aug-11 17:00N 49°36' W 004°03'1121.2
2019-Aug-11 16:29N 49°25' W 004°01'1021.1
2019-Aug-11 16:01N 49°15' W 004°01'1121.2
2019-Aug-11 15:30N 49°04' W 003°59'2112.2
2019-Aug-11 13:48N 48°43' W 003°58'0 0.0
2019-Aug-11 13:31N 48°43' W 003°58'0 0.0
2019-Aug-11 13:01N 48°43' W 003°58'0 0.0
2019-Aug-11 12:31N 48°43' W 003°58'0 0.0
2019-Aug-11 12:00N 48°43' W 003°58'0 0.0
2019-Aug-11 11:31N 48°43' W 003°58'0 0.0
2019-Aug-11 10:54N 48°43' W 003°58'2 5.0
2019-Aug-11 10:30N 48°45' W 003°57'1020.0
2019-Aug-11 10:00N 48°52' W 004°07'21520.5
2019-Aug-10 23:33N 51°31' W 007°53'121.2
2019-Aug-10 23:29N 51°32' W 007°55'1021.0
2019-Aug-10 23:00N 51°39' W 008°06'1019.3
2019-Aug-10 22:30N 51°47' W 008°15'4 8.4
2019-Aug-10 22:00N 51°51' W 008°17'2 3.5
2019-Aug-10 21:31N 51°50' W 008°19'0 0.0
2019-Aug-10 21:01N 51°50' W 008°19'0 0.0
2019-Aug-10 20:30N 51°50' W 008°19'0 0.0
2019-Aug-10 20:00N 51°50' W 008°19'0 0.0
2019-Aug-10 19:30N 51°50' W 008°19'0 0.0
2019-Aug-10 19:00N 51°50' W 008°19'0 0.0
2019-Aug-10 18:30N 51°50' W 008°19'0 0.0
2019-Aug-10 18:00N 51°50' W 008°19'0 0.0
2019-Aug-10 17:30N 51°50' W 008°19'1 1.6
2019-Aug-10 17:00N 51°51' W 008°19'3 6.9
2019-Aug-10 16:30N 51°48' W 008°16'816.6
2019-Aug-10 16:01N 51°41' W 008°07'1019.0
2019-Aug-10 15:30N 51°36' W 007°54'918.6
2019-Aug-10 15:00N 51°31' W 007°41'  

Dump ship's entire track history